Falls Mill, West Virginia
Current Conditions -  °F | °C
As of 10:51 AM on Wednesday 28 Jan 2015 (Local Time) from KBKW Reporting Station
Overcast Overcast  
Wind Chill: -11°   Ceiling: 1100
Heat Index: -7°   Visibility: 10mi
Dew Point: -11°   Wind: 6mph
Humidity: 74%   Direction: 360°N
Pressure: 30.25"   Gusts: NA
Location:  38.2586°N, 80.9505°W
Report Text: KBKW 281551Z AUTO 36005KT 10SM OVC011 M07/M11 A3025 RMK AO2 SLP294 T10671106
Loading
Personal Weather Stations






























Interactive Weather Map New forecast layout! Learn more

10-Day Weather Forecast

Advertisements
Track Severe Weather on mobile